sensor_id;sensor_type;location;lat;lon;timestamp;pressure;altitude;pressure_sealevel;temperature;humidity
81232;BME280;70703;55.652;37.710;2023-07-20T00:00:12;98829.59;;;16.39;60.93
81232;BME280;70703;55.652;37.710;2023-07-20T00:00:25;98825.81;;;16.40;61.20
81232;BME280;70703;55.652;37.710;2023-07-20T00:00:37;98838.00;;;16.42;61.22
81232;BME280;70703;55.652;37.710;2023-07-20T00:00:48;98827.94;;;16.38;60.96
81232;BME280;70703;55.652;37.710;2023-07-20T00:01:03;98825.25;;;16.38;61.12
81232;BME280;70703;55.652;37.710;2023-07-20T00:01:15;98831.78;;;16.42;61.09
81232;BME280;70703;55.652;37.710;2023-07-20T00:01:28;98833.41;;;16.43;61.24
81232;BME280;70703;55.652;37.710;2023-07-20T00:01:39;98821.66;;;16.32;61.19
81232;BME280;70703;55.652;37.710;2023-07-20T00:01:55;98836.84;;;16.38;61.08
81232;BME280;70703;55.652;37.710;2023-07-20T00:02:07;98837.19;;;16.42;61.08
81232;BME280;70703;55.652;37.710;2023-07-20T00:02:19;98842.56;;;16.42;60.95
81232;BME280;70703;55.652;37.710;2023-07-20T00:02:34;98828.19;;;16.36;60.79
81232;BME280;70703;55.652;37.710;2023-07-20T00:02:49;98826.56;;;16.35;60.82
81232;BME280;70703;55.652;37.710;2023-07-20T00:03:11;98794.59;;;16.05;60.52
81232;BME280;70703;55.652;37.710;2023-07-20T00:03:24;98837.44;;;16.40;60.74
81232;BME280;70703;55.652;37.710;2023-07-20T00:03:38;98779.72;;;16.02;60.85
81232;BME280;70703;55.652;37.710;2023-07-20T00:03:50;98834.72;;;16.40;60.59
81232;BME280;70703;55.652;37.710;2023-07-20T00:04:05;98813.81;;;16.30;60.60
81232;BME280;70703;55.652;37.710;2023-07-20T00:04:17;98820.81;;;16.31;60.75
81232;BME280;70703;55.652;37.710;2023-07-20T00:04:30;98837.44;;;16.40;60.56
81232;BME280;70703;55.652;37.710;2023-07-20T00:04:42;98786.53;;;16.10;60.96
81232;BME280;70703;55.652;37.710;2023-07-20T00:04:54;98828.19;;;16.36;60.58
81232;BME280;70703;55.652;37.710;2023-07-20T00:05:06;98833.91;;;16.40;60.60
81232;BME280;70703;55.652;37.710;2023-07-20T00:05:18;98814.53;;;16.26;60.84
81232;BME280;70703;55.652;37.710;2023-07-20T00:05:32;98835.22;;;16.37;60.77
81232;BME280;70703;55.652;37.710;2023-07-20T00:05:43;98833.09;;;16.39;60.64
81232;BME280;70703;55.652;37.710;2023-07-20T00:05:54;98800.41;;;16.19;60.62
81232;BME280;70703;55.652;37.710;2023-07-20T00:06:05;98826.91;;;16.39;60.23
81232;BME280;70703;55.652;37.710;2023-07-20T00:06:17;98813.50;;;16.27;60.47
81232;BME280;70703;55.652;37.710;2023-07-20T00:06:29;98833.91;;;16.40;60.73
81232;BME280;70703;55.652;37.710;2023-07-20T00:06:43;98825.50;;;16.36;60.72
81232;BME280;70703;55.652;37.710;2023-07-20T00:06:54;98829.81;;;16.37;60.94
81232;BME280;70703;55.652;37.710;2023-07-20T00:07:06;98830.91;;;16.36;60.91
81232;BME280;70703;55.652;37.710;2023-07-20T00:07:17;98833.59;;;16.36;61.44
81232;BME280;70703;55.652;37.710;2023-07-20T00:07:29;98827.88;;;16.32;61.30
81232;BME280;70703;55.652;37.710;2023-07-20T00:07:40;98796.03;;;16.12;61.03
81232;BME280;70703;55.652;37.710;2023-07-20T00:07:52;98837.69;;;16.39;61.20
81232;BME280;70703;55.652;37.710;2023-07-20T00:08:05;98822.47;;;16.32;60.90
81232;BME280;70703;55.652;37.710;2023-07-20T00:08:17;98827.69;;;16.39;60.77
81232;BME280;70703;55.652;37.710;2023-07-20T00:08:29;98828.69;;;16.33;60.96
81232;BME280;70703;55.652;37.710;2023-07-20T00:08:40;98829.50;;;16.33;60.86
81232;BME280;70703;55.652;37.710;2023-07-20T00:08:53;98835.78;;;16.39;60.77
81232;BME280;70703;55.652;37.710;2023-07-20T00:09:04;98829.50;;;16.33;61.17
81232;BME280;70703;55.652;37.710;2023-07-20T00:09:15;98835.22;;;16.37;61.09
81232;BME280;70703;55.652;37.710;2023-07-20T00:09:27;98829.50;;;16.33;61.20
81232;BME280;70703;55.652;37.710;2023-07-20T00:09:39;98844.38;;;16.36;60.93
81232;BME280;70703;55.652;37.710;2023-07-20T00:09:54;98833.84;;;16.35;60.96
81232;BME280;70703;55.652;37.710;2023-07-20T00:10:07;98829.75;;;16.32;60.79
81232;BME280;70703;55.652;37.710;2023-07-20T00:10:18;98836.53;;;16.35;61.09
81232;BME280;70703;55.652;37.710;2023-07-20T00:10:30;98831.63;;;16.31;60.88
81232;BME280;70703;55.652;37.710;2023-07-20T00:10:42;98832.63;;;16.25;61.14
81232;BME280;70703;55.652;37.710;2023-07-20T00:10:53;98830.66;;;16.38;60.78
81232;BME280;70703;55.652;37.710;2023-07-20T00:11:09;98838.41;;;16.34;60.86
81232;BME280;70703;55.652;37.710;2023-07-20T00:11:24;98807.63;;;16.13;61.07
81232;BME280;70703;55.652;37.710;2023-07-20T00:11:47;98830.31;;;16.34;61.23
81232;BME280;70703;55.652;37.710;2023-07-20T00:12:01;98790.88;;;16.11;61.14
81232;BME280;70703;55.652;37.710;2023-07-20T00:12:12;98807.47;;;16.20;61.09
81232;BME280;70703;55.652;37.710;2023-07-20T00:12:24;98835.22;;;16.37;61.21
81232;BME280;70703;55.652;37.710;2023-07-20T00:12:36;98836.28;;;16.36;60.70
81232;BME280;70703;55.652;37.710;2023-07-20T00:12:47;98837.91;;;16.37;60.77
81232;BME280;70703;55.652;37.710;2023-07-20T00:13:00;98831.97;;;16.35;60.62
81232;BME280;70703;55.652;37.710;2023-07-20T00:13:12;98803.56;;;16.10;60.43
81232;BME280;70703;55.652;37.710;2023-07-20T00:13:24;98834.09;;;16.33;60.66
81232;BME280;70703;55.652;37.710;2023-07-20T00:13:37;98834.66;;;16.35;61.08
81232;BME280;70703;55.652;37.710;2023-07-20T00:13:54;98799.66;;;16.01;61.12
81232;BME280;70703;55.652;37.710;2023-07-20T00:14:10;98841.09;;;16.34;61.26
81232;BME280;70703;55.652;37.710;2023-07-20T00:14:22;98824.28;;;16.27;60.93
81232;BME280;70703;55.652;37.710;2023-07-20T00:14:33;98833.25;;;16.32;60.93
81232;BME280;70703;55.652;37.710;2023-07-20T00:14:44;98835.97;;;16.32;61.08
81232;BME280;70703;55.652;37.710;2023-07-20T00:14:56;98819.94;;;16.26;61.15
81232;BME280;70703;55.652;37.710;2023-07-20T00:15:24;98808.25;;;16.20;61.45
81232;BME280;70703;55.652;37.710;2023-07-20T00:15:37;98833.75;;;16.29;61.35
81232;BME280;70703;55.652;37.710;2023-07-20T00:15:50;98831.41;;;16.33;61.16
81232;BME280;70703;55.652;37.710;2023-07-20T00:16:05;98825.66;;;16.29;61.50
81232;BME280;70703;55.652;37.710;2023-07-20T00:16:18;98832.47;;;16.32;61.17
81232;BME280;70703;55.652;37.710;2023-07-20T00:16:29;98835.72;;;16.34;61.49
81232;BME280;70703;55.652;37.710;2023-07-20T00:16:41;98825.41;;;16.31;61.45
81232;BME280;70703;55.652;37.710;2023-07-20T00:16:55;98832.72;;;16.30;61.32
81232;BME280;70703;55.652;37.710;2023-07-20T00:17:07;98829.75;;;16.32;61.44
81232;BME280;70703;55.652;37.710;2023-07-20T00:17:19;98829.75;;;16.32;61.44
81232;BME280;70703;55.652;37.710;2023-07-20T00:17:33;98835.72;;;16.34;61.62
81232;BME280;70703;55.652;37.710;2023-07-20T00:17:48;98835.66;;;16.29;61.60
81232;BME280;70703;55.652;37.710;2023-07-20T00:17:59;98829.13;;;16.25;61.50
81232;BME280;70703;55.652;37.710;2023-07-20T00:18:10;98832.97;;;16.29;61.25
81232;BME280;70703;55.652;37.710;2023-07-20T00:18:23;98821.53;;;16.22;60.93
81232;BME280;70703;55.652;37.710;2023-07-20T00:18:35;98835.66;;;16.29;61.03
81232;BME280;70703;55.652;37.710;2023-07-20T00:18:46;98839.25;;;16.35;60.95
81232;BME280;70703;55.652;37.710;2023-07-20T00:18:58;98821.53;;;16.22;61.16
81232;BME280;70703;55.652;37.710;2023-07-20T00:19:09;98836.78;;;16.33;61.18
81232;BME280;70703;55.652;37.710;2023-07-20T00:19:22;98834.09;;;16.33;61.06
81232;BME280;70703;55.652;37.710;2023-07-20T00:19:34;98828.53;;;16.23;60.87
81232;BME280;70703;55.652;37.710;2023-07-20T00:19:47;98840.31;;;16.33;60.75
81232;BME280;70703;55.652;37.710;2023-07-20T00:19:59;98815.81;;;16.18;60.94
81232;BME280;70703;55.652;37.710;2023-07-20T00:20:11;98810.91;;;16.15;60.77
81232;BME280;70703;55.652;37.710;2023-07-20T00:20:23;98839.97;;;16.30;61.00
81232;BME280;70703;55.652;37.710;2023-07-20T00:20:36;98838.66;;;16.32;61.17
81232;BME280;70703;55.652;37.710;2023-07-20T00:20:47;98832.97;;;16.29;60.83
81232;BME280;70703;55.652;37.710;2023-07-20T00:21:00;98849.97;;;16.29;61.12
81232;BME280;70703;55.652;37.710;2023-07-20T00:21:13;98836.38;;;16.24;60.61
81232;BME280;70703;55.652;37.710;2023-07-20T00:21:25;98829.38;;;16.23;60.82
81232;BME280;70703;55.652;37.710;2023-07-20T00:21:37;98841.59;;;16.31;61.03
81232;BME280;70703;55.652;37.710;2023-07-20T00:21:52;98842.19;;;16.33;61.22
81232;BME280;70703;55.652;37.710;2023-07-20T00:22:04;98841.59;;;16.31;60.90
81232;BME280;70703;55.652;37.710;2023-07-20T00:22:16;98841.31;;;16.27;61.30
81232;BME280;70703;55.652;37.710;2023-07-20T00:22:27;98820.41;;;16.18;60.94
81232;BME280;70703;55.652;37.710;2023-07-20T00:22:38;98846.19;;;16.30;61.15
81232;BME280;70703;55.652;37.710;2023-07-20T00:22:49;98823.66;;;16.20;61.01
81232;BME280;70703;55.652;37.710;2023-07-20T00:23:02;98828.03;;;16.26;61.09
81232;BME280;70703;55.652;37.710;2023-07-20T00:23:14;98834.78;;;16.23;61.00
81232;BME280;70703;55.652;37.710;2023-07-20T00:23:26;98845.38;;;16.30;60.87
81232;BME280;70703;55.652;37.710;2023-07-20T00:23:37;98845.06;;;16.26;60.89
81232;BME280;70703;55.652;37.710;2023-07-20T00:23:50;98840.81;;;16.30;60.91
81232;BME280;70703;55.652;37.710;2023-07-20T00:24:03;98843.75;;;16.29;61.04
81232;BME280;70703;55.652;37.710;2023-07-20T00:24:14;98845.38;;;16.30;60.78
81232;BME280;70703;55.652;37.710;2023-07-20T00:24:26;98848.56;;;16.27;61.07
81232;BME280;70703;55.652;37.710;2023-07-20T00:24:38;98839.97;;;16.30;61.17
81232;BME280;70703;55.652;37.710;2023-07-20T00:24:50;98840.81;;;16.30;61.13
81232;BME280;70703;55.652;37.710;2023-07-20T00:25:02;98842.63;;;16.25;60.93
81232;BME280;70703;55.652;37.710;2023-07-20T00:25:15;98848.91;;;16.30;61.06
81232;BME280;70703;55.652;37.710;2023-07-20T00:25:27;98822.00;;;16.19;60.77
81232;BME280;70703;55.652;37.710;2023-07-20T00:25:39;98825.53;;;16.19;60.91
81232;BME280;70703;55.652;37.710;2023-07-20T00:25:52;98835.66;;;16.29;61.03
81232;BME280;70703;55.652;37.710;2023-07-20T00:26:04;98845.38;;;16.30;60.77
81232;BME280;70703;55.652;37.710;2023-07-20T00:26:15;98845.88;;;16.27;60.88
81232;BME280;70703;55.652;37.710;2023-07-20T00:26:27;98849.16;;;16.29;61.06
81232;BME280;70703;55.652;37.710;2023-07-20T00:26:40;98823.00;;;16.12;60.87
81232;BME280;70703;55.652;37.710;2023-07-20T00:26:51;98846.44;;;16.29;61.44
81232;BME280;70703;55.652;37.710;2023-07-20T00:27:04;98802.09;;;16.03;61.18
81232;BME280;70703;55.652;37.710;2023-07-20T00:27:17;98849.16;;;16.29;61.11
81232;BME280;70703;55.652;37.710;2023-07-20T00:27:30;98838.34;;;16.29;61.35
81232;BME280;70703;55.652;37.710;2023-07-20T00:27:42;98838.28;;;16.24;61.12
81232;BME280;70703;55.652;37.710;2023-07-20T00:27:54;98836.38;;;16.24;61.14
81232;BME280;70703;55.652;37.710;2023-07-20T00:28:05;98847.25;;;16.29;60.61
81232;BME280;70703;55.652;37.710;2023-07-20T00:28:16;98845.38;;;16.30;60.55
81232;BME280;70703;55.652;37.710;2023-07-20T00:28:29;98848.31;;;16.28;60.61
81232;BME280;70703;55.652;37.710;2023-07-20T00:28:40;98836.88;;;16.21;60.60
81232;BME280;70703;55.652;37.710;2023-07-20T00:28:52;98836.06;;;16.21;60.88
81232;BME280;70703;55.652;37.710;2023-07-20T00:29:04;98794.59;;;15.88;60.89
81232;BME280;70703;55.652;37.710;2023-07-20T00:29:17;98845.88;;;16.27;60.98
81232;BME280;70703;55.652;37.710;2023-07-20T00:29:28;98832.78;;;16.19;61.16
81232;BME280;70703;55.652;37.710;2023-07-20T00:29:40;98850.72;;;16.25;60.73
81232;BME280;70703;55.652;37.710;2023-07-20T00:29:53;98837.94;;;16.20;61.10
81232;BME280;70703;55.652;37.710;2023-07-20T00:30:06;98852.31;;;16.26;60.84
81232;BME280;70703;55.652;37.710;2023-07-20T00:30:18;98844.22;;;16.26;60.87
81232;BME280;70703;55.652;37.710;2023-07-20T00:30:29;98841.22;;;16.22;61.18
81232;BME280;70703;55.652;37.710;2023-07-20T00:30:41;98840.63;;;16.20;61.04
81232;BME280;70703;55.652;37.710;2023-07-20T00:30:55;98844.72;;;16.23;60.82
81232;BME280;70703;55.652;37.710;2023-07-20T00:31:07;98810.94;;;15.98;61.20
81232;BME280;70703;55.652;37.710;2023-07-20T00:31:18;98840.97;;;16.24;61.08
81232;BME280;70703;55.652;37.710;2023-07-20T00:31:29;98824.66;;;16.13;61.04
81232;BME280;70703;55.652;37.710;2023-07-20T00:31:41;98848.00;;;16.25;60.99
81232;BME280;70703;55.652;37.710;2023-07-20T00:31:54;98843.66;;;16.24;61.34
81232;BME280;70703;55.652;37.710;2023-07-20T00:32:08;98784.53;;;15.83;60.99
81232;BME280;70703;55.652;37.710;2023-07-20T00:32:19;98836.06;;;16.21;60.93
81232;BME280;70703;55.652;37.710;2023-07-20T00:32:31;98829.53;;;16.16;60.76
81232;BME280;70703;55.652;37.710;2023-07-20T00:32:45;98843.66;;;16.24;61.07
81232;BME280;70703;55.652;37.710;2023-07-20T00:32:56;98852.56;;;16.24;60.69
81232;BME280;70703;55.652;37.710;2023-07-20T00:33:10;98847.66;;;16.21;60.74
81232;BME280;70703;55.652;37.710;2023-07-20T00:33:22;98850.13;;;16.23;60.73
81232;BME280;70703;55.652;37.710;2023-07-20T00:33:34;98847.41;;;16.23;60.68
81232;BME280;70703;55.652;37.710;2023-07-20T00:33:46;98848.50;;;16.22;60.66
81232;BME280;70703;55.652;37.710;2023-07-20T00:33:59;98841.47;;;16.21;60.58
81232;BME280;70703;55.652;37.710;2023-07-20T00:34:10;98844.66;;;16.18;60.67
81232;BME280;70703;55.652;37.710;2023-07-20T00:34:21;98847.66;;;16.21;60.87
81232;BME280;70703;55.652;37.710;2023-07-20T00:34:33;98838.38;;;16.12;61.02
81232;BME280;70703;55.652;37.710;2023-07-20T00:34:45;98835.50;;;16.19;61.18
81232;BME280;70703;55.652;37.710;2023-07-20T00:34:57;98839.28;;;16.18;61.47
81232;BME280;70703;55.652;37.710;2023-07-20T00:35:12;98807.25;;;15.87;61.71
81232;BME280;70703;55.652;37.710;2023-07-20T00:35:23;98849.56;;;16.21;61.71
81232;BME280;70703;55.652;37.710;2023-07-20T00:35:35;98846.03;;;16.20;61.62
81232;BME280;70703;55.652;37.710;2023-07-20T00:35:47;98849.56;;;16.21;61.06
81232;BME280;70703;55.652;37.710;2023-07-20T00:36:01;98835.75;;;16.17;61.05
81232;BME280;70703;55.652;37.710;2023-07-20T00:36:13;98839.03;;;16.19;61.30
81232;BME280;70703;55.652;37.710;2023-07-20T00:36:27;98845.22;;;16.20;61.14
81232;BME280;70703;55.652;37.710;2023-07-20T00:36:38;98840.31;;;16.16;61.25
81232;BME280;70703;55.652;37.710;2023-07-20T00:36:49;98843.03;;;16.16;61.05
81232;BME280;70703;55.652;37.710;2023-07-20T00:37:01;98841.97;;;16.18;61.16
81232;BME280;70703;55.652;37.710;2023-07-20T00:37:16;98828.91;;;16.09;61.26
81232;BME280;70703;55.652;37.710;2023-07-20T00:37:29;98836.25;;;16.14;61.13
81232;BME280;70703;55.652;37.710;2023-07-20T00:37:41;98803.75;;;15.87;61.31
81232;BME280;70703;55.652;37.710;2023-07-20T00:37:53;98843.59;;;16.19;61.22
81232;BME280;70703;55.652;37.710;2023-07-20T00:38:05;98832.50;;;16.15;61.08
81232;BME280;70703;55.652;37.710;2023-07-20T00:38:18;98847.13;;;16.19;60.96
81232;BME280;70703;55.652;37.710;2023-07-20T00:38:30;98837.03;;;16.14;61.26
81232;BME280;70703;55.652;37.710;2023-07-20T00:38:42;98844.09;;;16.15;61.19
81232;BME280;70703;55.652;37.710;2023-07-20T00:38:54;98843.53;;;16.13;60.96
81232;BME280;70703;55.652;37.710;2023-07-20T00:39:06;98849.47;;;16.15;61.05
81232;BME280;70703;55.652;37.710;2023-07-20T00:39:19;98848.97;;;16.19;60.72
81232;BME280;70703;55.652;37.710;2023-07-20T00:39:32;98824.47;;;16.03;61.03
81232;BME280;70703;55.652;37.710;2023-07-20T00:39:43;98844.66;;;16.18;61.17
81232;BME280;70703;55.652;37.710;2023-07-20T00:39:55;98844.41;;;16.19;60.85
81232;BME280;70703;55.652;37.710;2023-07-20T00:40:08;98843.53;;;16.13;60.81
81232;BME280;70703;55.652;37.710;2023-07-20T00:40:20;98859.53;;;16.20;60.85
81232;BME280;70703;55.652;37.710;2023-07-20T00:40:36;98844.09;;;16.15;61.07
81232;BME280;70703;55.652;37.710;2023-07-20T00:40:48;98839.53;;;16.16;60.81
81232;BME280;70703;55.652;37.710;2023-07-20T00:41:03;98850.63;;;16.20;61.04
81232;BME280;70703;55.652;37.710;2023-07-20T00:41:16;98838.94;;;16.14;61.07
81232;BME280;70703;55.652;37.710;2023-07-20T00:41:28;98814.69;;;15.97;61.07
81232;BME280;70703;55.652;37.710;2023-07-20T00:41:44;98848.97;;;16.19;60.71
81232;BME280;70703;55.652;37.710;2023-07-20T00:41:55;98837.53;;;16.11;60.98
81232;BME280;70703;55.652;37.710;2023-07-20T00:42:06;98833.00;;;15.95;60.78
81232;BME280;70703;55.652;37.710;2023-07-20T00:42:18;98843.28;;;16.15;60.93
81232;BME280;70703;55.652;37.710;2023-07-20T00:42:29;98827.13;;;15.98;60.81
81232;BME280;70703;55.652;37.710;2023-07-20T00:42:41;98845.72;;;16.16;60.96
81232;BME280;70703;55.652;37.710;2023-07-20T00:42:54;98849.81;;;16.19;60.82
81232;BME280;70703;55.652;37.710;2023-07-20T00:43:08;98835.09;;;16.10;60.73
81232;BME280;70703;55.652;37.710;2023-07-20T00:43:20;98845.72;;;16.16;60.93
81232;BME280;70703;55.652;37.710;2023-07-20T00:43:38;98835.34;;;16.08;61.15
81232;BME280;70703;55.652;37.710;2023-07-20T00:43:53;98848.97;;;16.19;60.82
81232;BME280;70703;55.652;37.710;2023-07-20T00:44:05;98844.91;;;16.16;61.39
81232;BME280;70703;55.652;37.710;2023-07-20T00:44:16;98848.97;;;16.19;61.37
81232;BME280;70703;55.652;37.710;2023-07-20T00:44:28;98825.94;;;16.11;61.26
81232;BME280;70703;55.652;37.710;2023-07-20T00:44:40;98847.63;;;16.16;61.09
81232;BME280;70703;55.652;37.710;2023-07-20T00:44:51;98837.53;;;16.11;60.97
81232;BME280;70703;55.652;37.710;2023-07-20T00:45:06;98840.81;;;16.13;60.81
81232;BME280;70703;55.652;37.710;2023-07-20T00:45:18;98849.22;;;16.17;61.14
81232;BME280;70703;55.652;37.710;2023-07-20T00:45:30;98847.84;;;16.14;60.96
81232;BME280;70703;55.652;37.710;2023-07-20T00:45:42;98849.47;;;16.15;60.89
81232;BME280;70703;55.652;37.710;2023-07-20T00:45:55;98827.75;;;16.05;60.85
81232;BME280;70703;55.652;37.710;2023-07-20T00:46:07;98847.03;;;16.14;60.66
81232;BME280;70703;55.652;37.710;2023-07-20T00:46:20;98846.22;;;16.13;61.10
81232;BME280;70703;55.652;37.710;2023-07-20T00:46:32;98840.50;;;16.10;61.08
81232;BME280;70703;55.652;37.710;2023-07-20T00:46:45;98834.78;;;16.06;61.09
81232;BME280;70703;55.652;37.710;2023-07-20T00:46:58;98811.91;;;15.92;61.55
81232;BME280;70703;55.652;37.710;2023-07-20T00:47:10;98851.63;;;16.13;61.33
81232;BME280;70703;55.652;37.710;2023-07-20T00:47:23;98846.22;;;16.13;61.27
81232;BME280;70703;55.652;37.710;2023-07-20T00:47:34;98846.72;;;16.10;61.23
81232;BME280;70703;55.652;37.710;2023-07-20T00:47:46;98851.63;;;16.13;61.21
81232;BME280;70703;55.652;37.710;2023-07-20T00:47:58;98834.22;;;16.04;61.00
81232;BME280;70703;55.652;37.710;2023-07-20T00:48:10;98845.63;;;16.11;60.89
81232;BME280;70703;55.652;37.710;2023-07-20T00:48:22;98839.34;;;16.06;61.12
81232;BME280;70703;55.652;37.710;2023-07-20T00:48:34;98850.78;;;16.13;60.99
81232;BME280;70703;55.652;37.710;2023-07-20T00:48:46;98846.22;;;16.13;61.04
81232;BME280;70703;55.652;37.710;2023-07-20T00:48:57;98851.63;;;16.13;60.86
81232;BME280;70703;55.652;37.710;2023-07-20T00:49:10;98822.22;;;15.95;60.90
81232;BME280;70703;55.652;37.710;2023-07-20T00:49:23;98839.94;;;16.08;60.99
81232;BME280;70703;55.652;37.710;2023-07-20T00:49:35;98841.88;;;16.12;61.39
81232;BME280;70703;55.652;37.710;2023-07-20T00:49:46;98850.78;;;16.13;61.50
81232;BME280;70703;55.652;37.710;2023-07-20T00:49:58;98852.69;;;16.12;61.44
81232;BME280;70703;55.652;37.710;2023-07-20T00:50:10;98824.81;;;15.90;61.31
81232;BME280;70703;55.652;37.710;2023-07-20T00:50:21;98850.53;;;16.14;61.35
81232;BME280;70703;55.652;37.710;2023-07-20T00:50:34;98836.91;;;16.04;61.30
81232;BME280;70703;55.652;37.710;2023-07-20T00:50:47;98850.47;;;16.09;61.24
81232;BME280;70703;55.652;37.710;2023-07-20T00:51:00;98850.53;;;16.14;61.34
81232;BME280;70703;55.652;37.710;2023-07-20T00:51:14;98855.94;;;16.14;61.20
81232;BME280;70703;55.652;37.710;2023-07-20T00:51:27;98839.34;;;16.06;60.90
81232;BME280;70703;55.652;37.710;2023-07-20T00:51:38;98843.94;;;16.05;61.13
81232;BME280;70703;55.652;37.710;2023-07-20T00:51:49;98850.78;;;16.13;60.90
81232;BME280;70703;55.652;37.710;2023-07-20T00:52:04;98844.84;;;16.11;61.22
81232;BME280;70703;55.652;37.710;2023-07-20T00:52:21;98857.00;;;16.13;61.07
81232;BME280;70703;55.652;37.710;2023-07-20T00:52:37;98845.63;;;16.11;60.97
81232;BME280;70703;55.652;37.710;2023-07-20T00:52:50;98857.00;;;16.13;61.25
81232;BME280;70703;55.652;37.710;2023-07-20T00:53:04;98849.97;;;16.12;61.33
81232;BME280;70703;55.652;37.710;2023-07-20T00:53:17;98848.84;;;16.08;61.12
81232;BME280;70703;55.652;37.710;2023-07-20T00:53:29;98853.69;;;16.06;61.33
81232;BME280;70703;55.652;37.710;2023-07-20T00:53:43;98859.13;;;16.11;61.56
81232;BME280;70703;55.652;37.710;2023-07-20T00:53:54;98841.50;;;16.04;61.81
81232;BME280;70703;55.652;37.710;2023-07-20T00:54:06;98859.13;;;16.11;61.42
81232;BME280;70703;55.652;37.710;2023-07-20T00:54:20;98847.78;;;16.09;61.88
81232;BME280;70703;55.652;37.710;2023-07-20T00:54:32;98850.22;;;16.11;61.59
81232;BME280;70703;55.652;37.710;2023-07-20T00:54:44;98851.03;;;16.11;61.32
81232;BME280;70703;55.652;37.710;2023-07-20T00:54:56;98858.31;;;16.11;61.47
81232;BME280;70703;55.652;37.710;2023-07-20T00:55:08;98842.28;;;16.04;61.64
81232;BME280;70703;55.652;37.710;2023-07-20T00:55:20;98850.72;;;16.08;61.75
81232;BME280;70703;55.652;37.710;2023-07-20T00:55:34;98848.34;;;16.11;61.43
81232;BME280;70703;55.652;37.710;2023-07-20T00:55:46;98831.44;;;15.99;61.65
81232;BME280;70703;55.652;37.710;2023-07-20T00:55:57;98845.59;;;16.06;61.56
81232;BME280;70703;55.652;37.710;2023-07-20T00:56:10;98822.69;;;15.92;61.63
81232;BME280;70703;55.652;37.710;2023-07-20T00:56:23;98834.72;;;16.01;61.30
81232;BME280;70703;55.652;37.710;2023-07-20T00:56:35;98852.94;;;16.11;61.31
81232;BME280;70703;55.652;37.710;2023-07-20T00:56:46;98847.13;;;16.02;61.44
81232;BME280;70703;55.652;37.710;2023-07-20T00:56:58;98852.34;;;16.09;61.46
81232;BME280;70703;55.652;37.710;2023-07-20T00:57:14;98819.44;;;15.90;61.49
81232;BME280;70703;55.652;37.710;2023-07-20T00:57:26;98852.13;;;16.10;61.45
81232;BME280;70703;55.652;37.710;2023-07-20T00:57:38;98850.47;;;16.09;61.23
81232;BME280;70703;55.652;37.710;2023-07-20T00:57:52;98834.16;;;15.99;61.24
81232;BME280;70703;55.652;37.710;2023-07-20T00:58:04;98824.56;;;15.91;61.23
81232;BME280;70703;55.652;37.710;2023-07-20T00:58:16;98845.88;;;16.10;61.25
81232;BME280;70703;55.652;37.710;2023-07-20T00:58:27;98835.25;;;16.03;61.31
81232;BME280;70703;55.652;37.710;2023-07-20T00:58:39;98833.66;;;16.02;61.72
81232;BME280;70703;55.652;37.710;2023-07-20T00:58:52;98849.63;;;16.09;61.78
81232;BME280;70703;55.652;37.710;2023-07-20T00:59:04;98829.72;;;15.93;61.52
81232;BME280;70703;55.652;37.710;2023-07-20T00:59:16;98845.59;;;16.06;61.50
81232;BME280;70703;55.652;37.710;2023-07-20T00:59:27;98848.28;;;16.06;61.56
81232;BME280;70703;55.652;37.710;2023-07-20T00:59:38;98817.78;;;15.89;61.65
81232;BME280;70703;55.652;37.710;2023-07-20T00:59:51;98834.72;;;16.01;61.42
81232;BME280;70703;55.652;37.710;2023-07-20T01:00:02;98848.84;;;16.08;61.38
81232;BME280;70703;55.652;37.710;2023-07-20T01:00:15;98837.41;;;16.01;61.33
81232;BME280;70703;55.652;37.710;2023-07-20T01:00:30;98845.88;;;16.10;61.42
81232;BME280;70703;55.652;37.710;2023-07-20T01:00:47;98819.19;;;15.91;61.73
81232;BME280;70703;55.652;37.710;2023-07-20T01:01:02;98847.53;;;16.11;61.47
81232;BME280;70703;55.652;37.710;2023-07-20T01:01:19;98840.19;;;16.06;61.57
81232;BME280;70703;55.652;37.710;2023-07-20T01:01:41;98836.84;;;15.99;61.38
81232;BME280;70703;55.652;37.710;2023-07-20T01:01:56;98837.41;;;16.01;61.21
81232;BME280;70703;55.652;37.710;2023-07-20T01:02:08;98839.03;;;16.02;61.38
81232;BME280;70703;55.652;37.710;2023-07-20T01:02:20;98845.59;;;16.06;61.53
81232;BME280;70703;55.652;37.710;2023-07-20T01:02:31;98842.78;;;16.01;61.30
81232;BME280;70703;55.652;37.710;2023-07-20T01:02:46;98846.38;;;16.07;61.44
81232;BME280;70703;55.652;37.710;2023-07-20T01:02:57;98837.41;;;16.01;61.47
81232;BME280;70703;55.652;37.710;2023-07-20T01:03:08;98844.19;;;16.04;61.71
81232;BME280;70703;55.652;37.710;2023-07-20T01:03:20;98826.28;;;15.80;61.52
81232;BME280;70703;55.652;37.710;2023-07-20T01:03:32;98850.97;;;16.06;61.67
81232;BME280;70703;55.652;37.710;2023-07-20T01:03:43;98850.97;;;16.06;61.42
81232;BME280;70703;55.652;37.710;2023-07-20T01:03:56;98853.69;;;16.06;61.94
81232;BME280;70703;55.652;37.710;2023-07-20T01:04:08;98849.34;;;16.05;61.70
81232;BME280;70703;55.652;37.710;2023-07-20T01:04:19;98799.16;;;15.70;61.98
81232;BME280;70703;55.652;37.710;2023-07-20T01:04:31;98835.19;;;15.98;61.84
81232;BME280;70703;55.652;37.710;2023-07-20T01:04:44;98844.09;;;15.98;61.69
81232;BME280;70703;55.652;37.710;2023-07-20T01:04:55;98849.88;;;16.07;61.84
81232;BME280;70703;55.652;37.710;2023-07-20T01:05:08;98855.22;;;16.02;61.60
81232;BME280;70703;55.652;37.710;2023-07-20T01:05:19;98850.97;;;16.06;61.70
81232;BME280;70703;55.652;37.710;2023-07-20T01:05:38;98852.59;;;16.07;61.76
81232;BME280;70703;55.652;37.710;2023-07-20T01:05:57;98836.91;;;16.04;61.85
81232;BME280;70703;55.652;37.710;2023-07-20T01:06:18;98835.19;;;15.98;61.76